createdAt,value
2017-10-24T00:00:50.405Z,14.90
2017-10-24T00:03:18.051Z,10.80
2017-10-24T00:05:45.814Z,12.15
2017-10-24T00:08:13.435Z,12.02
2017-10-24T00:10:41.082Z,12.95
2017-10-24T00:13:08.698Z,15.85
2017-10-24T00:15:37.138Z,14.35
2017-10-24T00:18:04.762Z,16.20
2017-10-24T00:20:32.390Z,13.35
2017-10-24T00:23:00.050Z,13.32
2017-10-24T00:25:27.779Z,14.85
2017-10-24T00:27:55.447Z,13.80
2017-10-24T00:30:23.076Z,16.98
2017-10-24T00:32:50.695Z,19.12
2017-10-24T00:35:19.110Z,17.65
2017-10-24T00:37:46.726Z,19.15
2017-10-24T00:40:14.381Z,17.65
2017-10-24T00:42:41.998Z,18.42
2017-10-24T00:45:10.388Z,15.95
2017-10-24T00:47:38.038Z,13.60
2017-10-24T00:50:05.721Z,14.27
2017-10-24T00:52:33.401Z,13.98
2017-10-24T00:55:01.022Z,15.82
2017-10-24T00:57:28.663Z,18.00
2017-10-24T00:59:56.316Z,14.15
2017-10-24T01:02:23.977Z,13.30
2017-10-24T01:04:51.715Z,19.35
2017-10-24T01:07:19.340Z,15.80
2017-10-24T01:09:46.959Z,15.40
2017-10-24T01:12:14.619Z,17.85
2017-10-24T01:14:42.250Z,13.70
2017-10-24T01:17:09.907Z,14.60
2017-10-24T01:19:37.545Z,16.42
2017-10-24T01:22:05.196Z,19.42
2017-10-24T01:24:32.853Z,18.42
2017-10-24T01:27:00.487Z,19.73
2017-10-24T01:29:28.158Z,17.37
2017-10-24T01:31:56.482Z,22.17
2017-10-24T01:34:24.119Z,20.67
2017-10-24T01:36:51.768Z,21.12
2017-10-24T01:39:20.269Z,23.77
2017-10-24T01:41:47.944Z,18.62
2017-10-24T01:44:15.610Z,28.35
2017-10-24T01:46:43.230Z,28.60
2017-10-24T01:49:10.891Z,20.27
2017-10-24T01:51:38.506Z,22.40
2017-10-24T01:54:06.171Z,20.70
2017-10-24T01:56:33.800Z,20.85
2017-10-24T01:59:01.435Z,20.05
2017-10-24T02:01:29.097Z,19.48
2017-10-24T02:03:56.735Z,22.10
2017-10-24T02:06:24.401Z,24.12
2017-10-24T02:08:52.085Z,24.33
2017-10-24T02:11:20.483Z,20.10
2017-10-24T02:13:48.125Z,21.58
2017-10-24T02:16:15.758Z,20.10
2017-10-24T02:18:43.413Z,20.83
2017-10-24T02:21:11.038Z,28.30
2017-10-24T02:23:39.427Z,22.02
2017-10-24T02:26:07.086Z,22.13
2017-10-24T02:28:34.703Z,24.23
2017-10-24T02:31:03.126Z,23.35
2017-10-24T02:33:30.768Z,22.77
2017-10-24T02:35:58.403Z,20.35
2017-10-24T02:38:26.214Z,21.08
2017-10-24T02:40:53.836Z,17.85
2017-10-24T02:43:21.495Z,18.80
2017-10-24T02:45:49.933Z,29.87
2017-10-24T02:48:17.550Z,19.83
2017-10-24T02:50:45.218Z,23.70
2017-10-24T02:53:13.211Z,20.65
2017-10-24T02:55:41.647Z,21.10
2017-10-24T02:58:09.275Z,25.70
2017-10-24T03:00:36.907Z,29.30
2017-10-24T03:03:04.558Z,21.00
2017-10-24T03:05:32.195Z,25.33
2017-10-24T03:07:59.890Z,19.92
2017-10-24T03:10:27.539Z,18.65
2017-10-24T03:12:55.169Z,21.12
2017-10-24T03:15:22.825Z,18.80
2017-10-24T03:17:50.442Z,19.83
2017-10-24T03:20:18.098Z,18.80
2017-10-24T03:22:45.739Z,33.53
2017-10-24T03:25:13.374Z,20.85
2017-10-24T03:27:41.057Z,16.48
2017-10-24T03:30:08.688Z,26.10
2017-10-24T03:32:36.349Z,23.98
2017-10-24T03:35:03.961Z,26.85
2017-10-24T03:37:31.598Z,25.95
2017-10-24T03:39:59.261Z,27.98
2017-10-24T03:42:26.892Z,24.87
2017-10-24T03:44:54.563Z,29.10
2017-10-24T03:47:22.189Z,35.90
2017-10-24T03:49:49.825Z,31.35
2017-10-24T03:52:17.637Z,36.20
2017-10-24T03:54:46.070Z,33.22
2017-10-24T03:57:13.734Z,36.67
2017-10-24T03:59:41.372Z,31.23
2017-10-24T04:02:09.003Z,26.48
2017-10-24T04:04:36.674Z,32.38
2017-10-24T04:07:04.306Z,29.98
2017-10-24T04:09:31.973Z,23.50
2017-10-24T04:11:59.598Z,34.13
2017-10-24T04:14:27.266Z,33.58
2017-10-24T04:16:54.940Z,28.48
2017-10-24T04:19:23.338Z,29.20
2017-10-24T04:21:51.000Z,28.50
2017-10-24T04:24:18.655Z,34.17
2017-10-24T04:26:46.348Z,52.62
2017-10-24T04:29:14.765Z,40.45
2017-10-24T04:31:42.399Z,40.65
2017-10-24T04:34:10.063Z,31.55
2017-10-24T04:36:37.713Z,37.05
2017-10-24T04:39:05.367Z,44.35
2017-10-24T04:41:33.081Z,35.05
2017-10-24T04:44:00.731Z,47.40
2017-10-24T04:46:28.391Z,57.83
2017-10-24T04:48:56.054Z,49.95
2017-10-24T04:51:23.687Z,51.92
2017-10-24T04:53:51.359Z,56.63
2017-10-24T04:56:18.990Z,47.35
2017-10-24T04:58:46.656Z,44.00
2017-10-24T05:01:15.055Z,43.30
2017-10-24T05:03:42.789Z,48.60
2017-10-24T05:06:10.462Z,46.28
2017-10-24T05:08:38.090Z,35.50
2017-10-24T05:11:05.850Z,37.00
2017-10-24T05:13:33.496Z,31.87
2017-10-24T05:16:01.124Z,45.97
2017-10-24T05:18:28.799Z,37.00
2017-10-24T05:20:56.427Z,40.30
2017-10-24T05:23:24.090Z,29.37
2017-10-24T05:25:51.727Z,47.95
2017-10-24T05:28:19.359Z,36.75
2017-10-24T05:30:47.090Z,45.58
2017-10-24T05:33:15.881Z,43.25
2017-10-24T05:35:43.624Z,44.45
2017-10-24T05:38:11.349Z,48.83
2017-10-24T05:40:38.974Z,39.45
2017-10-24T05:43:06.674Z,46.37
2017-10-24T05:45:34.499Z,34.92
2017-10-24T05:48:02.169Z,31.00
2017-10-24T05:50:29.823Z,37.78
2017-10-24T05:52:57.451Z,37.15
2017-10-24T05:55:25.857Z,39.35
2017-10-24T05:57:53.520Z,35.28
2017-10-24T06:00:21.145Z,32.65
2017-10-24T06:02:48.766Z,37.17
2017-10-24T06:05:16.428Z,33.53
2017-10-24T06:07:44.059Z,27.60
2017-10-24T06:10:11.690Z,34.63
2017-10-24T06:12:40.123Z,43.83
2017-10-24T06:15:07.743Z,41.00
2017-10-24T06:17:35.359Z,30.67
2017-10-24T06:20:03.033Z,33.90
2017-10-24T06:22:30.675Z,36.90
2017-10-24T06:24:58.305Z,33.35
2017-10-24T06:27:25.986Z,43.58
2017-10-24T06:29:53.627Z,29.33
2017-10-24T06:32:21.295Z,36.03
2017-10-24T06:34:48.923Z,28.08
2017-10-24T06:37:16.613Z,33.50
2017-10-24T06:39:45.026Z,29.63
2017-10-24T06:42:12.651Z,27.50
2017-10-24T06:44:40.330Z,31.33
2017-10-24T06:47:07.959Z,32.50
2017-10-24T06:49:35.627Z,27.80
2017-10-24T06:52:03.290Z,30.88
2017-10-24T06:54:30.923Z,30.37
2017-10-24T06:56:58.590Z,29.52
2017-10-24T06:59:26.246Z,33.13
2017-10-24T07:01:53.892Z,32.03
2017-10-24T07:04:21.541Z,28.35
2017-10-24T07:06:49.946Z,29.33
2017-10-24T07:09:17.631Z,32.20
2017-10-24T07:11:45.277Z,30.62
2017-10-24T07:14:13.706Z,35.80
2017-10-24T07:16:41.365Z,36.70
2017-10-24T07:19:09.002Z,28.08
2017-10-24T07:21:36.668Z,31.00
2017-10-24T07:24:04.297Z,30.12
2017-10-24T07:26:31.926Z,26.48
2017-10-24T07:28:59.567Z,26.20
2017-10-24T07:31:27.213Z,29.55
2017-10-24T07:33:54.890Z,32.38
2017-10-24T07:36:22.529Z,31.25
2017-10-24T07:38:50.197Z,38.80
2017-10-24T07:41:17.851Z,32.45
2017-10-24T07:43:45.494Z,36.30
2017-10-24T07:46:13.157Z,28.17
2017-10-24T07:48:40.786Z,33.53
2017-10-24T07:51:08.427Z,29.20
2017-10-24T07:53:36.083Z,30.67
2017-10-24T07:56:03.717Z,38.70
2017-10-24T07:58:31.381Z,30.08
2017-10-24T08:00:59.015Z,28.90
2017-10-24T08:03:26.662Z,34.97
2017-10-24T08:05:54.776Z,25.80
2017-10-24T08:08:22.412Z,29.00
2017-10-24T08:10:50.842Z,29.80
2017-10-24T08:13:18.476Z,28.38
2017-10-24T08:15:46.211Z,31.40
2017-10-24T08:18:13.867Z,29.42
2017-10-24T08:20:41.495Z,25.08
2017-10-24T08:23:09.158Z,33.20
2017-10-24T08:25:36.799Z,26.70
2017-10-24T08:28:04.468Z,25.42
2017-10-24T08:30:32.173Z,24.67
2017-10-24T08:32:59.818Z,29.42
2017-10-24T08:35:27.500Z,29.63
2017-10-24T08:37:55.158Z,21.33
2017-10-24T08:40:22.853Z,31.27
2017-10-24T08:42:50.511Z,27.15
2017-10-24T08:45:18.177Z,26.42
2017-10-24T08:47:45.842Z,24.10
2017-10-24T08:50:13.472Z,26.62
2017-10-24T08:52:41.107Z,27.17
2017-10-24T08:55:08.763Z,25.35
2017-10-24T08:57:36.398Z,26.20
2017-10-24T09:00:04.068Z,23.30
2017-10-24T09:02:31.698Z,25.73
2017-10-24T09:04:59.334Z,23.48
2017-10-24T09:07:27.863Z,23.35
2017-10-24T09:09:55.503Z,23.83
2017-10-24T09:12:23.161Z,19.83
2017-10-24T09:14:51.559Z,21.05
2017-10-24T09:17:36.905Z,22.60
2017-10-24T09:20:06.242Z,21.23
2017-10-24T09:22:33.898Z,23.83
2017-10-24T09:25:01.539Z,22.67
2017-10-24T09:27:29.206Z,22.37
2017-10-24T09:29:56.866Z,22.87
2017-10-24T09:32:27.840Z,22.10
2017-10-24T09:34:55.502Z,24.17
2017-10-24T09:37:23.143Z,21.70
2017-10-24T09:39:50.818Z,21.70
2017-10-24T09:42:19.222Z,22.40
2017-10-24T09:44:46.862Z,18.83
2017-10-24T09:47:14.515Z,18.80
2017-10-24T09:49:58.541Z,16.87
2017-10-24T09:52:26.955Z,21.83
2017-10-24T09:54:54.565Z,19.90
2017-10-24T09:57:22.181Z,19.50
2017-10-24T09:59:49.825Z,22.63
2017-10-24T10:02:17.455Z,20.50
2017-10-24T10:04:45.109Z,20.50
2017-10-24T10:07:12.807Z,20.20
2017-10-24T10:09:40.411Z,20.83
2017-10-24T10:12:09.858Z,20.53
2017-10-24T10:14:37.482Z,20.30
2017-10-24T10:17:05.179Z,18.05
2017-10-24T10:19:32.816Z,17.70
2017-10-24T10:22:01.229Z,18.15
2017-10-24T10:24:42.769Z,20.05
2017-10-24T10:27:11.166Z,18.17
2017-10-24T10:29:38.830Z,17.27
2017-10-24T10:32:06.474Z,19.17
2017-10-24T10:34:34.123Z,18.02
2017-10-24T10:37:01.786Z,17.73
2017-10-24T10:39:29.427Z,20.40
2017-10-24T10:41:57.094Z,18.65
2017-10-24T10:44:24.731Z,19.95
2017-10-24T10:46:52.385Z,18.85
2017-10-24T10:49:20.070Z,21.02
2017-10-24T10:51:47.708Z,19.40
2017-10-24T10:54:15.386Z,19.40
2017-10-24T10:56:43.019Z,17.42
2017-10-24T10:59:10.646Z,16.42
2017-10-24T11:01:39.063Z,15.77
2017-10-24T11:04:06.771Z,17.95
2017-10-24T11:06:34.698Z,17.37
2017-10-24T11:09:03.101Z,16.75
2017-10-24T11:11:30.730Z,18.02
2017-10-24T11:13:58.390Z,19.70
2017-10-24T11:16:26.029Z,18.12
2017-10-24T11:18:55.124Z,17.00
2017-10-24T11:21:22.761Z,14.27
2017-10-24T11:23:50.398Z,16.48
2017-10-24T11:26:18.080Z,16.17
2017-10-24T11:28:45.731Z,16.50
2017-10-24T11:31:14.263Z,14.82
2017-10-24T11:33:41.898Z,16.50
2017-10-24T11:36:09.583Z,17.70
2017-10-24T11:38:38.035Z,15.40
2017-10-24T11:41:05.713Z,16.02
2017-10-24T11:43:33.382Z,14.95
2017-10-24T11:46:01.034Z,15.77
2017-10-24T11:48:29.444Z,15.90
2017-10-24T11:50:57.107Z,14.10
2017-10-24T11:53:24.743Z,17.60
2017-10-24T11:55:52.383Z,13.70
2017-10-24T11:58:20.055Z,12.07
2017-10-24T12:00:47.696Z,12.98
2017-10-24T12:03:15.317Z,13.40
2017-10-24T12:05:42.982Z,13.82
2017-10-24T12:08:10.615Z,14.98
2017-10-24T12:10:38.246Z,14.25
2017-10-24T12:13:05.977Z,12.45
2017-10-24T12:15:34.382Z,14.35
2017-10-24T12:18:02.019Z,16.12
2017-10-24T12:20:29.685Z,14.35
2017-10-24T12:22:57.317Z,13.73
2017-10-24T12:25:24.950Z,14.85
2017-10-24T12:27:52.610Z,13.52
2017-10-24T12:30:20.255Z,13.35
2017-10-24T12:32:47.889Z,13.60
2017-10-24T12:35:15.655Z,14.63
2017-10-24T12:37:43.280Z,15.95
2017-10-24T12:40:10.905Z,15.27
2017-10-24T12:42:39.319Z,15.25
2017-10-24T12:45:07.694Z,15.57
2017-10-24T12:47:35.377Z,15.50
2017-10-24T12:50:04.350Z,14.45
2017-10-24T12:52:31.991Z,12.98
2017-10-24T12:54:59.649Z,13.75
2017-10-24T12:57:44.791Z,14.35
2017-10-24T13:00:20.247Z,12.80
2017-10-24T13:02:48.690Z,11.20
2017-10-24T13:05:18.121Z,12.60
2017-10-24T13:07:45.759Z,13.13
2017-10-24T13:10:13.428Z,11.50
2017-10-24T13:12:41.117Z,10.95
2017-10-24T13:15:08.763Z,10.50
2017-10-24T13:17:36.364Z,9.10
2017-10-24T13:20:03.976Z,10.43
2017-10-24T13:22:31.624Z,10.97
2017-10-24T13:24:59.253Z,10.20
2017-10-24T13:27:27.794Z,10.25
2017-10-24T13:29:55.429Z,9.68
2017-10-24T13:32:23.038Z,9.50
2017-10-24T13:34:50.669Z,9.00
2017-10-24T13:37:18.264Z,8.50
2017-10-24T13:39:45.928Z,10.40
2017-10-24T13:42:13.523Z,8.50
2017-10-24T13:44:41.121Z,9.30
2017-10-24T13:47:08.762Z,9.67
2017-10-24T13:49:36.362Z,8.73
2017-10-24T13:52:04.005Z,9.10
2017-10-24T13:54:31.608Z,8.73
2017-10-24T13:56:59.211Z,8.03
2017-10-24T13:59:26.854Z,7.15
2017-10-24T14:01:54.515Z,8.90
2017-10-24T14:04:27.867Z,7.07
2017-10-24T14:07:01.898Z,8.63
2017-10-24T14:09:35.169Z,6.82
2017-10-24T14:12:02.907Z,9.70
2017-10-24T14:14:30.542Z,9.70
2017-10-24T14:16:58.187Z,9.00
2017-10-24T14:19:25.829Z,9.68
2017-10-24T14:21:53.486Z,8.88
2017-10-24T14:24:21.106Z,7.65
2017-10-24T14:26:49.543Z,7.43
2017-10-24T14:29:17.207Z,7.62
2017-10-24T14:31:44.836Z,8.15
2017-10-24T14:34:12.527Z,7.62
2017-10-24T14:36:40.240Z,6.00
2017-10-24T14:39:07.867Z,7.53
2017-10-24T14:41:36.276Z,7.68
2017-10-24T14:44:04.659Z,6.97
2017-10-24T14:46:32.305Z,7.20
2017-10-24T14:48:59.924Z,8.27
2017-10-24T14:51:27.547Z,8.63
2017-10-24T14:53:55.214Z,8.18
2017-10-24T14:56:22.860Z,7.00
2017-10-24T14:58:50.610Z,8.38
2017-10-24T15:01:18.224Z,8.00
2017-10-24T15:03:45.890Z,7.00
2017-10-24T15:06:13.581Z,6.87
2017-10-24T15:08:41.215Z,7.35
2017-10-24T15:11:08.915Z,7.12
2017-10-24T15:13:36.599Z,6.93
2017-10-24T15:16:04.983Z,5.87
2017-10-24T15:18:32.630Z,7.75
2017-10-24T15:21:00.248Z,6.60
2017-10-24T15:23:27.939Z,7.00
2017-10-24T15:25:55.641Z,8.85
2017-10-24T15:30:57.278Z,7.28
2017-10-24T15:33:24.934Z,6.30
2017-10-24T15:35:52.586Z,6.53
2017-10-24T15:38:20.971Z,7.53
2017-10-24T15:40:48.589Z,6.55
2017-10-24T15:43:16.739Z,6.18
2017-10-24T15:45:44.475Z,6.80
2017-10-24T15:48:12.132Z,7.37
2017-10-24T15:50:39.746Z,5.80
2017-10-24T15:53:07.383Z,5.93
2017-10-24T15:55:35.035Z,5.65
2017-10-24T15:58:02.700Z,5.53
2017-10-24T16:00:30.362Z,5.53
2017-10-24T16:02:58.006Z,5.45
2017-10-24T16:05:25.702Z,7.28
2017-10-24T16:07:53.368Z,10.13
2017-10-24T16:10:21.012Z,7.40
2017-10-24T16:12:48.704Z,6.82
2017-10-24T16:15:16.332Z,6.95
2017-10-24T16:17:43.972Z,7.12
2017-10-24T16:20:11.634Z,6.43
2017-10-24T16:22:39.260Z,10.15
2017-10-24T16:25:06.922Z,5.57
2017-10-24T16:27:34.554Z,6.85
2017-10-24T16:30:02.199Z,5.95
2017-10-24T16:32:29.835Z,6.22
2017-10-24T16:34:57.445Z,6.47
2017-10-24T16:37:25.916Z,6.87
2017-10-24T16:39:54.298Z,5.75
2017-10-24T16:42:21.910Z,6.82
2017-10-24T16:44:50.338Z,7.15
2017-10-24T16:47:17.974Z,7.20
2017-10-24T16:49:45.816Z,7.62
2017-10-24T16:52:13.435Z,9.38
2017-10-24T16:54:41.100Z,9.88
2017-10-24T16:57:08.732Z,11.10
2017-10-24T16:59:36.361Z,11.07
2017-10-24T17:02:04.724Z,8.73
2017-10-24T17:04:33.158Z,9.15
2017-10-24T17:07:00.780Z,9.85
2017-10-24T17:09:28.775Z,9.15
2017-10-24T17:11:56.418Z,10.10
2017-10-24T17:14:24.075Z,8.80
2017-10-24T17:16:51.730Z,11.38
2017-10-24T17:19:20.119Z,9.65
2017-10-24T17:21:47.779Z,8.90
2017-10-24T17:24:15.393Z,9.10
2017-10-24T17:26:43.067Z,6.65
2017-10-24T17:29:10.690Z,8.23
2017-10-24T17:31:39.074Z,8.68
2017-10-24T17:34:06.714Z,8.52
2017-10-24T17:36:34.338Z,7.50
2017-10-24T17:39:02.766Z,8.32
2017-10-24T17:41:30.385Z,8.98
2017-10-24T17:43:58.050Z,6.90
2017-10-24T17:46:25.721Z,8.07
2017-10-24T17:48:53.355Z,7.05
2017-10-24T17:51:21.034Z,6.75
2017-10-24T17:53:49.434Z,7.75
2017-10-24T17:56:17.406Z,7.15
2017-10-24T17:58:45.166Z,7.65
2017-10-24T18:01:13.013Z,7.78
2017-10-24T18:03:40.685Z,6.35
2017-10-24T18:06:08.398Z,8.23
2017-10-24T18:08:36.174Z,6.90
2017-10-24T18:11:03.846Z,6.90
2017-10-24T18:13:32.241Z,6.90
2017-10-24T18:15:59.910Z,7.20
2017-10-24T18:18:27.534Z,7.32
2017-10-24T18:20:55.284Z,8.05
2017-10-24T18:23:22.972Z,7.12
2017-10-24T18:25:53.956Z,9.07
2017-10-24T18:28:21.637Z,7.28
2017-10-24T18:30:49.262Z,7.35
2017-10-24T18:33:16.880Z,7.72
2017-10-24T18:35:44.548Z,8.07
2017-10-24T18:38:12.174Z,9.52
2017-10-24T18:40:39.927Z,7.60
2017-10-24T18:43:07.667Z,8.10
2017-10-24T18:45:35.372Z,6.30
2017-10-24T18:48:03.026Z,6.90
2017-10-24T18:50:30.662Z,7.90
2017-10-24T18:52:58.331Z,8.15
2017-10-24T18:55:26.690Z,8.27
2017-10-24T18:57:54.322Z,9.23
2017-10-24T19:00:21.970Z,7.12
2017-10-24T19:02:49.602Z,8.75
2017-10-24T19:05:17.305Z,8.10
2017-10-24T19:07:45.787Z,7.85
2017-10-24T19:10:13.402Z,7.60
2017-10-24T19:12:41.860Z,7.70
2017-10-24T19:15:09.479Z,7.15
2017-10-24T19:17:37.278Z,8.38
2017-10-24T19:20:04.902Z,7.20
2017-10-24T19:22:32.538Z,6.97
2017-10-24T19:25:00.211Z,7.60
2017-10-24T19:27:27.819Z,6.68
2017-10-24T19:29:55.479Z,6.25
2017-10-24T19:32:23.123Z,7.25
2017-10-24T19:34:50.755Z,7.55
2017-10-24T19:37:18.414Z,6.60
2017-10-24T19:39:46.279Z,6.93
2017-10-24T19:42:13.934Z,5.87
2017-10-24T19:44:41.586Z,8.02
2017-10-24T19:47:09.971Z,6.20
2017-10-24T19:49:37.622Z,5.82
2017-10-24T19:52:05.248Z,5.90
2017-10-24T19:54:32.916Z,6.18
2017-10-24T19:57:00.542Z,5.20
2017-10-24T19:59:28.936Z,5.70
2017-10-24T20:01:57.019Z,7.80
2017-10-24T20:04:24.637Z,7.03
2017-10-24T20:06:52.296Z,6.25
2017-10-24T20:09:19.910Z,6.75
2017-10-24T20:11:47.539Z,5.60
2017-10-24T20:14:16.230Z,5.80
2017-10-24T20:16:43.918Z,5.95
2017-10-24T20:19:12.719Z,6.03
2017-10-24T20:21:40.339Z,5.95
2017-10-24T20:24:07.946Z,6.65
2017-10-24T20:26:35.830Z,7.03
2017-10-24T20:29:03.437Z,6.12
2017-10-24T20:31:31.220Z,6.28
2017-10-24T20:33:59.670Z,5.95
2017-10-24T20:36:27.342Z,6.62
2017-10-24T20:38:55.881Z,5.60
2017-10-24T20:41:23.509Z,5.35
2017-10-24T20:43:52.076Z,5.22
2017-10-24T20:46:19.694Z,4.12
2017-10-24T20:48:47.391Z,4.68
2017-10-24T20:51:15.024Z,6.28
2017-10-24T20:53:42.737Z,4.70
2017-10-24T20:56:10.406Z,4.18
2017-10-24T20:58:39.774Z,4.00
2017-10-24T21:01:07.387Z,4.28
2017-10-24T21:03:35.056Z,3.55
2017-10-24T21:06:02.687Z,3.60
2017-10-24T21:08:30.349Z,3.22
2017-10-24T21:10:57.985Z,3.37
2017-10-24T21:13:25.849Z,3.67
2017-10-24T21:15:53.496Z,4.15
2017-10-24T21:18:21.110Z,3.05
2017-10-24T21:20:48.797Z,3.40
2017-10-24T21:23:16.415Z,3.20
2017-10-24T21:25:44.051Z,3.30
2017-10-24T21:28:11.702Z,3.30
2017-10-24T21:30:39.322Z,3.45
2017-10-24T21:33:07.036Z,3.50
2017-10-24T21:35:34.906Z,7.90
2017-10-24T21:38:03.315Z,4.32
2017-10-24T21:43:09.167Z,2.90
2017-10-24T21:45:36.895Z,4.97
2017-10-24T21:48:04.511Z,7.90
2017-10-24T21:50:32.146Z,3.00
2017-10-24T21:53:00.557Z,4.32
2017-10-24T21:55:28.175Z,3.40
2017-10-24T21:57:55.906Z,3.22
2017-10-24T22:00:28.250Z,3.17
2017-10-24T22:02:57.120Z,2.92
2017-10-24T22:05:24.746Z,3.42
2017-10-24T22:07:52.390Z,2.60
2017-10-24T22:10:20.044Z,3.35
2017-10-24T22:12:47.668Z,2.67
2017-10-24T22:15:15.878Z,2.62
2017-10-24T22:17:44.265Z,3.65
2017-10-24T22:20:11.880Z,2.92
2017-10-24T22:22:39.523Z,3.47
2017-10-24T22:25:07.223Z,6.20
2017-10-24T22:27:34.874Z,6.12
2017-10-24T22:30:02.500Z,4.40
2017-10-24T22:32:30.119Z,4.80
2017-10-24T22:34:57.770Z,4.20
2017-10-24T22:37:26.226Z,3.03
2017-10-24T22:39:53.872Z,3.47
2017-10-24T22:42:22.329Z,3.05
2017-10-24T22:44:49.950Z,3.20
2017-10-24T22:47:17.606Z,3.00
2017-10-24T22:49:45.252Z,3.35
2017-10-24T22:52:12.989Z,2.87
2017-10-24T22:54:40.625Z,2.12
2017-10-24T22:57:08.248Z,1.92
2017-10-24T22:59:36.159Z,2.15
2017-10-24T23:02:03.778Z,2.58
2017-10-24T23:04:31.915Z,1.92
2017-10-24T23:06:59.530Z,2.10
2017-10-24T23:09:27.918Z,2.53
2017-10-24T23:11:55.967Z,2.17
2017-10-24T23:14:23.592Z,2.08
2017-10-24T23:16:52.012Z,2.80
2017-10-24T23:19:19.627Z,3.17
2017-10-24T23:21:47.263Z,2.70
2017-10-24T23:24:15.822Z,3.97
2017-10-24T23:26:44.202Z,3.30
2017-10-24T23:29:11.871Z,4.25
2017-10-24T23:31:39.498Z,3.42
2017-10-24T23:34:07.218Z,3.17
2017-10-24T23:36:34.866Z,4.05
2017-10-24T23:39:03.250Z,4.35
2017-10-24T23:41:30.911Z,4.40
2017-10-24T23:43:58.519Z,5.30
2017-10-24T23:46:26.291Z,5.60
2017-10-24T23:48:53.937Z,5.90
2017-10-24T23:51:22.322Z,5.50
2017-10-24T23:53:49.985Z,4.85
2017-10-24T23:56:18.366Z,5.07
2017-10-24T23:58:46.186Z,5.87
